sensor_id;sensor_type;location;lat;lon;timestamp;P1;durP1;ratioP1;P2;durP2;ratioP2
78666;SDS011;67983;59.830;30.198;2023-05-10T00:01:14;16.40;;;5.88;;
78666;SDS011;67983;59.830;30.198;2023-05-10T00:03:40;15.30;;;5.32;;
78666;SDS011;67983;59.830;30.198;2023-05-10T00:06:10;11.50;;;5.03;;
78666;SDS011;67983;59.830;30.198;2023-05-10T00:08:39;12.00;;;5.18;;
78666;SDS011;67983;59.830;30.198;2023-05-10T00:11:07;14.35;;;5.43;;
78666;SDS011;67983;59.830;30.198;2023-05-10T00:13:35;14.05;;;7.45;;
78666;SDS011;67983;59.830;30.198;2023-05-10T00:16:03;17.42;;;7.78;;
78666;SDS011;67983;59.830;30.198;2023-05-10T00:18:31;16.95;;;7.13;;
78666;SDS011;67983;59.830;30.198;2023-05-10T00:20:59;16.95;;;9.45;;
78666;SDS011;67983;59.830;30.198;2023-05-10T00:23:30;17.60;;;7.25;;
78666;SDS011;67983;59.830;30.198;2023-05-10T00:25:57;16.13;;;8.18;;
78666;SDS011;67983;59.830;30.198;2023-05-10T00:28:28;11.43;;;5.95;;
78666;SDS011;67983;59.830;30.198;2023-05-10T00:30:55;14.23;;;6.72;;
78666;SDS011;67983;59.830;30.198;2023-05-10T00:33:22;12.50;;;7.32;;
78666;SDS011;67983;59.830;30.198;2023-05-10T00:35:51;12.00;;;7.22;;
78666;SDS011;67983;59.830;30.198;2023-05-10T00:38:18;17.98;;;6.72;;
78666;SDS011;67983;59.830;30.198;2023-05-10T00:40:47;10.38;;;5.32;;
78666;SDS011;67983;59.830;30.198;2023-05-10T00:43:22;16.48;;;7.13;;
78666;SDS011;67983;59.830;30.198;2023-05-10T00:45:49;13.70;;;7.25;;
78666;SDS011;67983;59.830;30.198;2023-05-10T00:48:16;12.63;;;5.88;;
78666;SDS011;67983;59.830;30.198;2023-05-10T00:50:43;21.75;;;6.13;;
78666;SDS011;67983;59.830;30.198;2023-05-10T00:53:11;14.05;;;6.32;;
78666;SDS011;67983;59.830;30.198;2023-05-10T00:55:38;13.45;;;5.15;;
78666;SDS011;67983;59.830;30.198;2023-05-10T00:58:09;14.77;;;6.05;;
78666;SDS011;67983;59.830;30.198;2023-05-10T01:00:37;15.98;;;5.57;;
78666;SDS011;67983;59.830;30.198;2023-05-10T01:03:09;14.18;;;5.90;;
78666;SDS011;67983;59.830;30.198;2023-05-10T01:05:36;13.20;;;5.30;;
78666;SDS011;67983;59.830;30.198;2023-05-10T01:08:04;10.30;;;4.93;;
78666;SDS011;67983;59.830;30.198;2023-05-10T01:10:32;13.27;;;5.57;;
78666;SDS011;67983;59.830;30.198;2023-05-10T01:13:01;14.40;;;6.38;;
78666;SDS011;67983;59.830;30.198;2023-05-10T01:15:31;11.98;;;5.22;;
78666;SDS011;67983;59.830;30.198;2023-05-10T01:18:00;10.68;;;5.60;;
78666;SDS011;67983;59.830;30.198;2023-05-10T01:20:28;15.68;;;6.10;;
78666;SDS011;67983;59.830;30.198;2023-05-10T01:23:19;19.02;;;5.60;;
78666;SDS011;67983;59.830;30.198;2023-05-10T01:26:14;12.68;;;5.60;;
78666;SDS011;67983;59.830;30.198;2023-05-10T01:29:11;10.35;;;5.32;;
78666;SDS011;67983;59.830;30.198;2023-05-10T01:32:02;14.40;;;5.43;;
78666;SDS011;67983;59.830;30.198;2023-05-10T01:34:53;15.50;;;5.82;;
78666;SDS011;67983;59.830;30.198;2023-05-10T01:37:31;12.88;;;5.72;;
78666;SDS011;67983;59.830;30.198;2023-05-10T01:42:36;8.68;;;4.72;;
78666;SDS011;67983;59.830;30.198;2023-05-10T01:45:20;8.23;;;4.68;;
78666;SDS011;67983;59.830;30.198;2023-05-10T01:47:57;14.63;;;4.45;;
78666;SDS011;67983;59.830;30.198;2023-05-10T01:50:34;13.43;;;3.92;;
78666;SDS011;67983;59.830;30.198;2023-05-10T01:53:06;6.18;;;3.92;;
78666;SDS011;67983;59.830;30.198;2023-05-10T01:55:35;14.10;;;5.03;;
78666;SDS011;67983;59.830;30.198;2023-05-10T01:58:07;11.05;;;4.18;;
78666;SDS011;67983;59.830;30.198;2023-05-10T02:00:40;16.77;;;5.13;;
78666;SDS011;67983;59.830;30.198;2023-05-10T02:03:11;15.20;;;4.55;;
78666;SDS011;67983;59.830;30.198;2023-05-10T02:05:41;8.90;;;5.55;;
78666;SDS011;67983;59.830;30.198;2023-05-10T02:08:14;13.93;;;5.38;;
78666;SDS011;67983;59.830;30.198;2023-05-10T02:10:42;8.50;;;4.50;;
78666;SDS011;67983;59.830;30.198;2023-05-10T02:13:13;9.63;;;4.60;;
78666;SDS011;67983;59.830;30.198;2023-05-10T02:15:41;9.13;;;5.00;;
78666;SDS011;67983;59.830;30.198;2023-05-10T02:18:12;11.73;;;4.72;;
78666;SDS011;67983;59.830;30.198;2023-05-10T02:20:42;13.27;;;4.95;;
78666;SDS011;67983;59.830;30.198;2023-05-10T02:23:11;8.52;;;4.85;;
78666;SDS011;67983;59.830;30.198;2023-05-10T02:25:42;16.15;;;6.10;;
78666;SDS011;67983;59.830;30.198;2023-05-10T02:28:12;16.52;;;6.15;;
78666;SDS011;67983;59.830;30.198;2023-05-10T02:30:40;11.43;;;4.95;;
78666;SDS011;67983;59.830;30.198;2023-05-10T02:33:09;10.45;;;6.35;;
78666;SDS011;67983;59.830;30.198;2023-05-10T02:38:07;16.60;;;6.45;;
78666;SDS011;67983;59.830;30.198;2023-05-10T02:40:38;13.60;;;7.28;;
78666;SDS011;67983;59.830;30.198;2023-05-10T02:43:11;13.98;;;7.15;;
78666;SDS011;67983;59.830;30.198;2023-05-10T02:45:40;13.95;;;7.90;;
78666;SDS011;67983;59.830;30.198;2023-05-10T02:48:09;17.67;;;7.65;;
78666;SDS011;67983;59.830;30.198;2023-05-10T02:50:38;19.58;;;8.68;;
78666;SDS011;67983;59.830;30.198;2023-05-10T02:53:15;21.08;;;8.43;;
78666;SDS011;67983;59.830;30.198;2023-05-10T02:55:45;10.32;;;5.95;;
78666;SDS011;67983;59.830;30.198;2023-05-10T02:58:19;14.73;;;7.38;;
78666;SDS011;67983;59.830;30.198;2023-05-10T03:00:46;13.88;;;6.22;;
78666;SDS011;67983;59.830;30.198;2023-05-10T03:03:17;12.85;;;7.55;;
78666;SDS011;67983;59.830;30.198;2023-05-10T03:05:47;21.77;;;7.85;;
78666;SDS011;67983;59.830;30.198;2023-05-10T03:08:15;14.93;;;7.30;;
78666;SDS011;67983;59.830;30.198;2023-05-10T03:10:45;11.25;;;5.55;;
78666;SDS011;67983;59.830;30.198;2023-05-10T03:13:24;15.27;;;6.63;;
78666;SDS011;67983;59.830;30.198;2023-05-10T03:16:06;12.85;;;6.18;;
78666;SDS011;67983;59.830;30.198;2023-05-10T03:18:41;16.92;;;6.97;;
78666;SDS011;67983;59.830;30.198;2023-05-10T03:21:12;16.27;;;6.65;;
78666;SDS011;67983;59.830;30.198;2023-05-10T03:23:43;15.30;;;6.60;;
78666;SDS011;67983;59.830;30.198;2023-05-10T03:26:16;10.40;;;6.13;;
78666;SDS011;67983;59.830;30.198;2023-05-10T03:31:17;9.18;;;4.57;;
78666;SDS011;67983;59.830;30.198;2023-05-10T03:33:45;12.25;;;6.18;;
78666;SDS011;67983;59.830;30.198;2023-05-10T03:36:15;10.95;;;5.45;;
78666;SDS011;67983;59.830;30.198;2023-05-10T03:38:43;12.52;;;5.43;;
78666;SDS011;67983;59.830;30.198;2023-05-10T03:41:11;16.25;;;6.43;;
78666;SDS011;67983;59.830;30.198;2023-05-10T03:43:38;14.95;;;6.10;;
78666;SDS011;67983;59.830;30.198;2023-05-10T03:46:06;11.65;;;6.30;;
78666;SDS011;67983;59.830;30.198;2023-05-10T03:48:35;12.43;;;6.65;;
78666;SDS011;67983;59.830;30.198;2023-05-10T03:51:02;16.88;;;6.97;;
78666;SDS011;67983;59.830;30.198;2023-05-10T03:53:33;18.58;;;6.25;;
78666;SDS011;67983;59.830;30.198;2023-05-10T03:56:04;12.38;;;5.88;;
78666;SDS011;67983;59.830;30.198;2023-05-10T03:58:31;12.60;;;6.13;;
78666;SDS011;67983;59.830;30.198;2023-05-10T04:00:58;12.13;;;6.40;;
78666;SDS011;67983;59.830;30.198;2023-05-10T04:03:25;13.43;;;6.70;;
78666;SDS011;67983;59.830;30.198;2023-05-10T04:05:58;13.55;;;6.15;;
78666;SDS011;67983;59.830;30.198;2023-05-10T04:08:27;13.00;;;6.53;;
78666;SDS011;67983;59.830;30.198;2023-05-10T04:11:09;12.32;;;5.38;;
78666;SDS011;67983;59.830;30.198;2023-05-10T04:13:39;9.30;;;5.47;;
78666;SDS011;67983;59.830;30.198;2023-05-10T04:16:06;10.35;;;5.95;;
78666;SDS011;67983;59.830;30.198;2023-05-10T04:18:36;9.43;;;5.40;;
78666;SDS011;67983;59.830;30.198;2023-05-10T04:21:03;7.65;;;4.93;;
78666;SDS011;67983;59.830;30.198;2023-05-10T04:23:30;8.23;;;5.15;;
78666;SDS011;67983;59.830;30.198;2023-05-10T04:26:00;10.68;;;5.15;;
78666;SDS011;67983;59.830;30.198;2023-05-10T04:28:30;9.23;;;5.13;;
78666;SDS011;67983;59.830;30.198;2023-05-10T04:31:01;10.10;;;5.55;;
78666;SDS011;67983;59.830;30.198;2023-05-10T04:33:29;12.40;;;5.70;;
78666;SDS011;67983;59.830;30.198;2023-05-10T04:35:57;10.95;;;5.82;;
78666;SDS011;67983;59.830;30.198;2023-05-10T04:38:24;8.85;;;5.10;;
78666;SDS011;67983;59.830;30.198;2023-05-10T04:40:52;9.63;;;4.25;;
78666;SDS011;67983;59.830;30.198;2023-05-10T04:43:23;9.20;;;5.85;;
78666;SDS011;67983;59.830;30.198;2023-05-10T04:48:43;6.82;;;5.22;;
78666;SDS011;67983;59.830;30.198;2023-05-10T04:51:10;11.07;;;6.32;;
78666;SDS011;67983;59.830;30.198;2023-05-10T04:53:37;9.98;;;5.80;;
78666;SDS011;67983;59.830;30.198;2023-05-10T04:56:04;15.05;;;6.25;;
78666;SDS011;67983;59.830;30.198;2023-05-10T04:58:34;9.85;;;5.72;;
78666;SDS011;67983;59.830;30.198;2023-05-10T05:01:05;10.85;;;5.93;;
78666;SDS011;67983;59.830;30.198;2023-05-10T05:03:35;9.60;;;4.05;;
78666;SDS011;67983;59.830;30.198;2023-05-10T05:06:02;9.27;;;4.60;;
78666;SDS011;67983;59.830;30.198;2023-05-10T05:08:30;8.50;;;4.32;;
78666;SDS011;67983;59.830;30.198;2023-05-10T05:10:57;11.77;;;4.85;;
78666;SDS011;67983;59.830;30.198;2023-05-10T05:13:24;7.35;;;4.35;;
78666;SDS011;67983;59.830;30.198;2023-05-10T05:16:00;7.68;;;3.80;;
78666;SDS011;67983;59.830;30.198;2023-05-10T05:18:27;6.50;;;4.28;;
78666;SDS011;67983;59.830;30.198;2023-05-10T05:20:58;7.30;;;4.13;;
78666;SDS011;67983;59.830;30.198;2023-05-10T05:23:26;6.85;;;3.97;;
78666;SDS011;67983;59.830;30.198;2023-05-10T05:25:54;7.47;;;3.95;;
78666;SDS011;67983;59.830;30.198;2023-05-10T05:28:21;6.95;;;4.10;;
78666;SDS011;67983;59.830;30.198;2023-05-10T05:30:49;6.15;;;3.60;;
78666;SDS011;67983;59.830;30.198;2023-05-10T05:33:16;7.38;;;3.63;;
78666;SDS011;67983;59.830;30.198;2023-05-10T05:35:43;6.35;;;3.05;;
78666;SDS011;67983;59.830;30.198;2023-05-10T05:38:16;6.82;;;2.88;;
78666;SDS011;67983;59.830;30.198;2023-05-10T05:40:44;5.97;;;3.03;;
78666;SDS011;67983;59.830;30.198;2023-05-10T05:43:14;5.63;;;3.03;;
78666;SDS011;67983;59.830;30.198;2023-05-10T05:45:42;4.43;;;2.80;;
78666;SDS011;67983;59.830;30.198;2023-05-10T05:48:08;5.57;;;2.35;;
78666;SDS011;67983;59.830;30.198;2023-05-10T05:50:35;3.97;;;2.53;;
78666;SDS011;67983;59.830;30.198;2023-05-10T05:53:05;4.13;;;2.40;;
78666;SDS011;67983;59.830;30.198;2023-05-10T05:55:34;4.05;;;1.90;;
78666;SDS011;67983;59.830;30.198;2023-05-10T05:58:01;5.28;;;2.55;;
78666;SDS011;67983;59.830;30.198;2023-05-10T06:00:29;5.20;;;2.90;;
78666;SDS011;67983;59.830;30.198;2023-05-10T06:02:56;3.95;;;2.70;;
78666;SDS011;67983;59.830;30.198;2023-05-10T06:05:24;4.55;;;2.65;;
78666;SDS011;67983;59.830;30.198;2023-05-10T06:07:51;7.40;;;2.33;;
78666;SDS011;67983;59.830;30.198;2023-05-10T06:10:19;3.35;;;2.40;;
78666;SDS011;67983;59.830;30.198;2023-05-10T06:12:47;3.05;;;1.98;;
78666;SDS011;67983;59.830;30.198;2023-05-10T06:15:14;6.30;;;2.70;;
78666;SDS011;67983;59.830;30.198;2023-05-10T06:17:42;4.68;;;2.20;;
78666;SDS011;67983;59.830;30.198;2023-05-10T06:20:10;7.68;;;2.90;;
78666;SDS011;67983;59.830;30.198;2023-05-10T06:22:38;7.15;;;2.80;;
78666;SDS011;67983;59.830;30.198;2023-05-10T06:25:06;5.40;;;2.58;;
78666;SDS011;67983;59.830;30.198;2023-05-10T06:27:37;3.13;;;2.17;;
78666;SDS011;67983;59.830;30.198;2023-05-10T06:30:06;3.90;;;2.50;;
78666;SDS011;67983;59.830;30.198;2023-05-10T06:35:02;5.07;;;2.80;;
78666;SDS011;67983;59.830;30.198;2023-05-10T06:37:29;4.10;;;2.70;;
78666;SDS011;67983;59.830;30.198;2023-05-10T06:39:57;4.45;;;2.88;;
78666;SDS011;67983;59.830;30.198;2023-05-10T06:42:24;5.35;;;2.63;;
78666;SDS011;67983;59.830;30.198;2023-05-10T06:44:52;4.80;;;2.55;;
78666;SDS011;67983;59.830;30.198;2023-05-10T06:47:21;4.03;;;2.60;;
78666;SDS011;67983;59.830;30.198;2023-05-10T06:49:48;9.43;;;2.70;;
78666;SDS011;67983;59.830;30.198;2023-05-10T06:52:16;5.50;;;3.38;;
78666;SDS011;67983;59.830;30.198;2023-05-10T06:54:47;4.95;;;2.80;;
78666;SDS011;67983;59.830;30.198;2023-05-10T06:57:13;5.75;;;3.10;;
78666;SDS011;67983;59.830;30.198;2023-05-10T06:59:40;5.85;;;3.05;;
78666;SDS011;67983;59.830;30.198;2023-05-10T07:02:10;9.65;;;2.60;;
78666;SDS011;67983;59.830;30.198;2023-05-10T07:04:39;3.75;;;2.40;;
78666;SDS011;67983;59.830;30.198;2023-05-10T07:07:07;4.40;;;2.30;;
78666;SDS011;67983;59.830;30.198;2023-05-10T07:09:59;3.65;;;2.20;;
78666;SDS011;67983;59.830;30.198;2023-05-10T07:12:29;3.13;;;2.30;;
78666;SDS011;67983;59.830;30.198;2023-05-10T07:14:57;10.20;;;2.60;;
78666;SDS011;67983;59.830;30.198;2023-05-10T07:17:24;9.02;;;2.92;;
78666;SDS011;67983;59.830;30.198;2023-05-10T07:19:52;3.72;;;2.80;;
78666;SDS011;67983;59.830;30.198;2023-05-10T07:22:21;4.13;;;2.78;;
78666;SDS011;67983;59.830;30.198;2023-05-10T07:24:48;6.90;;;2.75;;
78666;SDS011;67983;59.830;30.198;2023-05-10T07:27:17;4.38;;;2.45;;
78666;SDS011;67983;59.830;30.198;2023-05-10T07:29:44;3.10;;;2.30;;
78666;SDS011;67983;59.830;30.198;2023-05-10T07:32:12;7.45;;;2.25;;
78666;SDS011;67983;59.830;30.198;2023-05-10T07:34:39;7.15;;;2.58;;
78666;SDS011;67983;59.830;30.198;2023-05-10T07:37:08;3.78;;;2.10;;
78666;SDS011;67983;59.830;30.198;2023-05-10T07:39:35;5.93;;;2.42;;
78666;SDS011;67983;59.830;30.198;2023-05-10T07:42:03;7.28;;;2.17;;
78666;SDS011;67983;59.830;30.198;2023-05-10T07:44:57;8.55;;;3.15;;
78666;SDS011;67983;59.830;30.198;2023-05-10T07:47:25;5.57;;;2.70;;
78666;SDS011;67983;59.830;30.198;2023-05-10T07:49:52;4.63;;;2.63;;
78666;SDS011;67983;59.830;30.198;2023-05-10T07:52:20;2.90;;;1.80;;
78666;SDS011;67983;59.830;30.198;2023-05-10T07:54:47;4.65;;;2.22;;
78666;SDS011;67983;59.830;30.198;2023-05-10T07:57:14;6.53;;;2.63;;
78666;SDS011;67983;59.830;30.198;2023-05-10T07:59:44;4.95;;;2.33;;
78666;SDS011;67983;59.830;30.198;2023-05-10T08:02:11;7.18;;;2.50;;
78666;SDS011;67983;59.830;30.198;2023-05-10T08:04:40;2.72;;;1.90;;
78666;SDS011;67983;59.830;30.198;2023-05-10T08:07:07;2.55;;;2.05;;
78666;SDS011;67983;59.830;30.198;2023-05-10T08:09:36;6.57;;;2.22;;
78666;SDS011;67983;59.830;30.198;2023-05-10T08:12:03;8.63;;;2.13;;
78666;SDS011;67983;59.830;30.198;2023-05-10T08:14:31;5.47;;;2.55;;
78666;SDS011;67983;59.830;30.198;2023-05-10T08:16:58;3.03;;;2.17;;
78666;SDS011;67983;59.830;30.198;2023-05-10T08:19:24;3.53;;;2.40;;
78666;SDS011;67983;59.830;30.198;2023-05-10T08:21:52;4.28;;;2.25;;
78666;SDS011;67983;59.830;30.198;2023-05-10T08:24:20;6.05;;;2.97;;
78666;SDS011;67983;59.830;30.198;2023-05-10T08:26:49;4.32;;;3.00;;
78666;SDS011;67983;59.830;30.198;2023-05-10T08:29:19;3.95;;;3.08;;
78666;SDS011;67983;59.830;30.198;2023-05-10T08:31:46;3.63;;;2.58;;
78666;SDS011;67983;59.830;30.198;2023-05-10T08:34:14;5.70;;;3.00;;
78666;SDS011;67983;59.830;30.198;2023-05-10T08:36:41;3.97;;;2.92;;
78666;SDS011;67983;59.830;30.198;2023-05-10T08:39:35;5.28;;;3.17;;
78666;SDS011;67983;59.830;30.198;2023-05-10T08:42:06;7.20;;;2.85;;
78666;SDS011;67983;59.830;30.198;2023-05-10T08:44:39;4.85;;;2.97;;
78666;SDS011;67983;59.830;30.198;2023-05-10T08:47:07;3.40;;;2.85;;
78666;SDS011;67983;59.830;30.198;2023-05-10T08:49:36;3.80;;;2.30;;
78666;SDS011;67983;59.830;30.198;2023-05-10T08:52:07;4.65;;;2.78;;
78666;SDS011;67983;59.830;30.198;2023-05-10T08:54:37;5.38;;;2.28;;
78666;SDS011;67983;59.830;30.198;2023-05-10T08:57:07;2.67;;;2.30;;
78666;SDS011;67983;59.830;30.198;2023-05-10T08:59:35;3.58;;;2.13;;
78666;SDS011;67983;59.830;30.198;2023-05-10T09:02:04;3.60;;;2.33;;
78666;SDS011;67983;59.830;30.198;2023-05-10T09:04:34;5.03;;;2.30;;
78666;SDS011;67983;59.830;30.198;2023-05-10T09:07:01;4.43;;;1.83;;
78666;SDS011;67983;59.830;30.198;2023-05-10T09:09:31;4.20;;;2.30;;
78666;SDS011;67983;59.830;30.198;2023-05-10T09:11:58;3.88;;;1.92;;
78666;SDS011;67983;59.830;30.198;2023-05-10T09:14:28;3.85;;;1.90;;
78666;SDS011;67983;59.830;30.198;2023-05-10T09:16:55;3.42;;;1.60;;
78666;SDS011;67983;59.830;30.198;2023-05-10T09:19:22;3.40;;;2.10;;
78666;SDS011;67983;59.830;30.198;2023-05-10T09:21:56;4.28;;;1.90;;
78666;SDS011;67983;59.830;30.198;2023-05-10T09:24:25;5.20;;;2.33;;
78666;SDS011;67983;59.830;30.198;2023-05-10T09:26:53;2.97;;;1.70;;
78666;SDS011;67983;59.830;30.198;2023-05-10T09:29:19;2.92;;;1.70;;
78666;SDS011;67983;59.830;30.198;2023-05-10T09:31:48;2.63;;;1.73;;
78666;SDS011;67983;59.830;30.198;2023-05-10T09:34:22;3.70;;;2.20;;
78666;SDS011;67983;59.830;30.198;2023-05-10T09:36:58;6.25;;;2.00;;
78666;SDS011;67983;59.830;30.198;2023-05-10T09:39:30;3.00;;;1.75;;
78666;SDS011;67983;59.830;30.198;2023-05-10T09:41:59;3.85;;;1.85;;
78666;SDS011;67983;59.830;30.198;2023-05-10T09:44:28;2.20;;;1.67;;
78666;SDS011;67983;59.830;30.198;2023-05-10T09:46:58;1.98;;;1.60;;
78666;SDS011;67983;59.830;30.198;2023-05-10T09:49:28;4.70;;;1.65;;
78666;SDS011;67983;59.830;30.198;2023-05-10T09:52:01;3.92;;;1.92;;
78666;SDS011;67983;59.830;30.198;2023-05-10T09:54:29;3.35;;;1.85;;
78666;SDS011;67983;59.830;30.198;2023-05-10T09:56:56;6.38;;;1.80;;
78666;SDS011;67983;59.830;30.198;2023-05-10T09:59:25;3.10;;;1.80;;
78666;SDS011;67983;59.830;30.198;2023-05-10T10:01:55;3.67;;;1.80;;
78666;SDS011;67983;59.830;30.198;2023-05-10T10:04:27;4.35;;;1.98;;
78666;SDS011;67983;59.830;30.198;2023-05-10T10:07:03;3.45;;;1.60;;
78666;SDS011;67983;59.830;30.198;2023-05-10T10:09:31;5.18;;;2.20;;
78666;SDS011;67983;59.830;30.198;2023-05-10T10:12:00;3.20;;;2.00;;
78666;SDS011;67983;59.830;30.198;2023-05-10T10:14:29;5.78;;;1.92;;
78666;SDS011;67983;59.830;30.198;2023-05-10T10:16:56;3.45;;;1.92;;
78666;SDS011;67983;59.830;30.198;2023-05-10T10:19:27;3.38;;;1.85;;
78666;SDS011;67983;59.830;30.198;2023-05-10T10:21:56;3.70;;;1.92;;
78666;SDS011;67983;59.830;30.198;2023-05-10T10:24:24;2.90;;;2.03;;
78666;SDS011;67983;59.830;30.198;2023-05-10T10:26:52;3.75;;;1.77;;
78666;SDS011;67983;59.830;30.198;2023-05-10T10:29:23;2.97;;;2.13;;
78666;SDS011;67983;59.830;30.198;2023-05-10T10:31:55;2.92;;;2.17;;
78666;SDS011;67983;59.830;30.198;2023-05-10T10:34:34;4.10;;;2.22;;
78666;SDS011;67983;59.830;30.198;2023-05-10T10:37:04;2.83;;;1.98;;
78666;SDS011;67983;59.830;30.198;2023-05-10T10:39:31;2.83;;;2.03;;
78666;SDS011;67983;59.830;30.198;2023-05-10T10:42:02;6.78;;;2.15;;
78666;SDS011;67983;59.830;30.198;2023-05-10T10:44:34;3.08;;;2.00;;
78666;SDS011;67983;59.830;30.198;2023-05-10T10:47:07;4.05;;;1.80;;
78666;SDS011;67983;59.830;30.198;2023-05-10T10:49:52;7.28;;;2.10;;
78666;SDS011;67983;59.830;30.198;2023-05-10T10:52:30;2.55;;;1.75;;
78666;SDS011;67983;59.830;30.198;2023-05-10T10:55:00;2.90;;;2.03;;
78666;SDS011;67983;59.830;30.198;2023-05-10T10:57:42;5.63;;;1.90;;
78666;SDS011;67983;59.830;30.198;2023-05-10T11:00:23;3.75;;;2.15;;
78666;SDS011;67983;59.830;30.198;2023-05-10T11:03:00;3.47;;;1.63;;
78666;SDS011;67983;59.830;30.198;2023-05-10T11:05:37;2.05;;;1.58;;
78666;SDS011;67983;59.830;30.198;2023-05-10T11:08:07;2.45;;;1.80;;
78666;SDS011;67983;59.830;30.198;2023-05-10T11:10:38;4.03;;;1.88;;
78666;SDS011;67983;59.830;30.198;2023-05-10T11:13:08;3.22;;;2.00;;
78666;SDS011;67983;59.830;30.198;2023-05-10T11:15:37;3.17;;;1.70;;
78666;SDS011;67983;59.830;30.198;2023-05-10T11:18:17;1.90;;;1.60;;
78666;SDS011;67983;59.830;30.198;2023-05-10T11:20:51;2.70;;;2.15;;
78666;SDS011;67983;59.830;30.198;2023-05-10T11:23:20;3.60;;;2.00;;
78666;SDS011;67983;59.830;30.198;2023-05-10T11:25:48;3.58;;;2.00;;
78666;SDS011;67983;59.830;30.198;2023-05-10T11:28:16;2.22;;;1.73;;
78666;SDS011;67983;59.830;30.198;2023-05-10T11:30:44;2.63;;;1.90;;
78666;SDS011;67983;59.830;30.198;2023-05-10T11:33:16;4.53;;;2.15;;
78666;SDS011;67983;59.830;30.198;2023-05-10T11:35:45;3.47;;;1.70;;
78666;SDS011;67983;59.830;30.198;2023-05-10T11:38:14;3.42;;;2.10;;
78666;SDS011;67983;59.830;30.198;2023-05-10T11:40:43;3.47;;;1.75;;
78666;SDS011;67983;59.830;30.198;2023-05-10T11:43:10;2.78;;;1.70;;
78666;SDS011;67983;59.830;30.198;2023-05-10T11:45:37;2.00;;;1.80;;
78666;SDS011;67983;59.830;30.198;2023-05-10T11:48:06;2.92;;;1.85;;
78666;SDS011;67983;59.830;30.198;2023-05-10T11:50:34;2.53;;;1.85;;
78666;SDS011;67983;59.830;30.198;2023-05-10T11:53:01;4.00;;;2.00;;
78666;SDS011;67983;59.830;30.198;2023-05-10T11:55:31;3.10;;;1.48;;
78666;SDS011;67983;59.830;30.198;2023-05-10T11:58:01;3.00;;;1.70;;
78666;SDS011;67983;59.830;30.198;2023-05-10T12:00:29;1.83;;;1.52;;
78666;SDS011;67983;59.830;30.198;2023-05-10T12:03:00;2.45;;;1.50;;
78666;SDS011;67983;59.830;30.198;2023-05-10T12:05:28;3.28;;;2.08;;
78666;SDS011;67983;59.830;30.198;2023-05-10T12:08:11;2.25;;;1.70;;
78666;SDS011;67983;59.830;30.198;2023-05-10T12:10:43;2.58;;;1.55;;
78666;SDS011;67983;59.830;30.198;2023-05-10T12:13:11;4.55;;;2.00;;
78666;SDS011;67983;59.830;30.198;2023-05-10T12:15:40;6.78;;;1.83;;
78666;SDS011;67983;59.830;30.198;2023-05-10T12:18:08;3.33;;;2.08;;
78666;SDS011;67983;59.830;30.198;2023-05-10T12:20:36;3.90;;;2.00;;
78666;SDS011;67983;59.830;30.198;2023-05-10T12:23:05;4.47;;;2.28;;
78666;SDS011;67983;59.830;30.198;2023-05-10T12:25:37;2.40;;;1.92;;
78666;SDS011;67983;59.830;30.198;2023-05-10T12:28:06;4.38;;;1.95;;
78666;SDS011;67983;59.830;30.198;2023-05-10T12:30:36;4.10;;;2.10;;
78666;SDS011;67983;59.830;30.198;2023-05-10T12:33:07;3.92;;;1.90;;
78666;SDS011;67983;59.830;30.198;2023-05-10T12:35:42;4.93;;;2.13;;
78666;SDS011;67983;59.830;30.198;2023-05-10T12:38:25;2.90;;;1.70;;
78666;SDS011;67983;59.830;30.198;2023-05-10T12:40:55;2.88;;;1.50;;
78666;SDS011;67983;59.830;30.198;2023-05-10T12:43:26;3.80;;;2.20;;
78666;SDS011;67983;59.830;30.198;2023-05-10T12:48:46;5.60;;;1.98;;
78666;SDS011;67983;59.830;30.198;2023-05-10T12:51:20;5.22;;;1.55;;
78666;SDS011;67983;59.830;30.198;2023-05-10T12:53:48;2.67;;;1.98;;
78666;SDS011;67983;59.830;30.198;2023-05-10T12:56:16;4.90;;;1.67;;
78666;SDS011;67983;59.830;30.198;2023-05-10T12:58:44;5.32;;;2.08;;
78666;SDS011;67983;59.830;30.198;2023-05-10T13:01:13;3.47;;;1.92;;
78666;SDS011;67983;59.830;30.198;2023-05-10T13:03:40;4.97;;;1.73;;
78666;SDS011;67983;59.830;30.198;2023-05-10T13:06:10;2.42;;;1.60;;
78666;SDS011;67983;59.830;30.198;2023-05-10T13:08:38;5.50;;;2.28;;
78666;SDS011;67983;59.830;30.198;2023-05-10T13:11:05;3.97;;;1.92;;
78666;SDS011;67983;59.830;30.198;2023-05-10T13:13:32;2.72;;;1.90;;
78666;SDS011;67983;59.830;30.198;2023-05-10T13:16:03;4.25;;;1.90;;
78666;SDS011;67983;59.830;30.198;2023-05-10T13:20:59;3.05;;;1.80;;
78666;SDS011;67983;59.830;30.198;2023-05-10T13:23:31;5.07;;;1.85;;
78666;SDS011;67983;59.830;30.198;2023-05-10T13:25:58;4.60;;;1.98;;
78666;SDS011;67983;59.830;30.198;2023-05-10T13:28:25;2.78;;;1.73;;
78666;SDS011;67983;59.830;30.198;2023-05-10T13:30:52;6.95;;;1.80;;
78666;SDS011;67983;59.830;30.198;2023-05-10T13:33:20;4.50;;;1.83;;
78666;SDS011;67983;59.830;30.198;2023-05-10T13:35:48;4.35;;;1.98;;
78666;SDS011;67983;59.830;30.198;2023-05-10T13:38:18;4.78;;;1.65;;
78666;SDS011;67983;59.830;30.198;2023-05-10T13:40:46;4.85;;;2.00;;
78666;SDS011;67983;59.830;30.198;2023-05-10T13:43:15;2.42;;;1.70;;
78666;SDS011;67983;59.830;30.198;2023-05-10T13:45:42;4.07;;;1.55;;
78666;SDS011;67983;59.830;30.198;2023-05-10T13:48:09;4.53;;;1.70;;
78666;SDS011;67983;59.830;30.198;2023-05-10T13:50:37;4.28;;;1.92;;
78666;SDS011;67983;59.830;30.198;2023-05-10T13:53:04;3.38;;;1.42;;
78666;SDS011;67983;59.830;30.198;2023-05-10T13:58:46;3.20;;;1.80;;
78666;SDS011;67983;59.830;30.198;2023-05-10T14:01:13;4.35;;;1.90;;
78666;SDS011;67983;59.830;30.198;2023-05-10T14:03:40;2.28;;;1.70;;
78666;SDS011;67983;59.830;30.198;2023-05-10T14:06:09;5.63;;;1.90;;
78666;SDS011;67983;59.830;30.198;2023-05-10T14:08:37;3.83;;;1.83;;
78666;SDS011;67983;59.830;30.198;2023-05-10T14:11:06;7.38;;;1.98;;
78666;SDS011;67983;59.830;30.198;2023-05-10T14:13:34;3.75;;;1.70;;
78666;SDS011;67983;59.830;30.198;2023-05-10T14:16:05;4.47;;;2.05;;
78666;SDS011;67983;59.830;30.198;2023-05-10T14:18:33;6.85;;;1.70;;
78666;SDS011;67983;59.830;30.198;2023-05-10T14:21:27;3.75;;;1.85;;
78666;SDS011;67983;59.830;30.198;2023-05-10T14:23:56;4.70;;;1.75;;
78666;SDS011;67983;59.830;30.198;2023-05-10T14:26:23;3.88;;;1.55;;
78666;SDS011;67983;59.830;30.198;2023-05-10T14:28:52;3.25;;;1.83;;
78666;SDS011;67983;59.830;30.198;2023-05-10T14:31:19;4.70;;;2.00;;
78666;SDS011;67983;59.830;30.198;2023-05-10T14:33:46;4.90;;;1.80;;
78666;SDS011;67983;59.830;30.198;2023-05-10T14:36:14;1.67;;;1.58;;
78666;SDS011;67983;59.830;30.198;2023-05-10T14:38:43;5.05;;;1.80;;
78666;SDS011;67983;59.830;30.198;2023-05-10T14:41:10;3.28;;;1.83;;
78666;SDS011;67983;59.830;30.198;2023-05-10T14:43:40;4.72;;;2.00;;
78666;SDS011;67983;59.830;30.198;2023-05-10T14:46:07;6.93;;;2.08;;
78666;SDS011;67983;59.830;30.198;2023-05-10T14:48:34;4.35;;;2.35;;
78666;SDS011;67983;59.830;30.198;2023-05-10T14:51:02;4.30;;;2.78;;
78666;SDS011;67983;59.830;30.198;2023-05-10T14:53:30;5.22;;;2.13;;
78666;SDS011;67983;59.830;30.198;2023-05-10T14:56:05;5.13;;;1.92;;
78666;SDS011;67983;59.830;30.198;2023-05-10T14:58:33;4.68;;;2.00;;
78666;SDS011;67983;59.830;30.198;2023-05-10T15:01:01;3.50;;;2.10;;
78666;SDS011;67983;59.830;30.198;2023-05-10T15:03:28;3.78;;;2.10;;
78666;SDS011;67983;59.830;30.198;2023-05-10T15:05:56;2.65;;;2.10;;
78666;SDS011;67983;59.830;30.198;2023-05-10T15:08:24;3.65;;;2.03;;